Time;durP1;ratioP1;P1;durP2;ratioP2;P2;SDS_P1;SDS_P2;PMS_P1;PMS_P2;Temp;Humidity;BMP_temperature;BMP_pressure;BME280_temperature;BME280_humidity;BME280_pressure;Samples;Min_cycle;Max_cycle;Signal;HPM_P1;HPM_P2
2022/03/15 00:00:47;;;;;;;11.87;8.70;;;8.00;99.90;;;;;;5055079;28;20177;-70
2022/03/15 00:03:13;;;;;;;11.63;7.83;;;8.10;99.90;;;;;;5054905;28;20170;-70
2022/03/15 00:05:39;;;;;;;11.93;8.60;;;8.10;99.90;;;;;;5055086;28;20211;-69
2022/03/15 00:08:05;;;;;;;9.60;7.83;;;8.10;99.90;;;;;;5055091;28;20172;-71
2022/03/15 00:10:31;;;;;;;12.30;9.20;;;8.10;99.90;;;;;;5053303;28;20201;-70
2022/03/15 00:12:57;;;;;;;12.33;8.93;;;8.10;99.90;;;;;;5054735;28;20499;-69
2022/03/15 00:15:26;;;;;;;10.80;8.40;;;8.10;99.90;;;;;;5055217;28;20510;-72
2022/03/15 00:17:53;;;;;;;11.07;8.67;;;8.10;99.90;;;;;;5054909;28;20247;-72
2022/03/15 00:20:22;;;;;;;10.20;9.10;;;8.10;99.90;;;;;;5054861;28;20490;-70
2022/03/15 00:22:49;;;;;;;8.70;7.70;;;8.00;99.90;;;;;;5054352;28;20433;-69
2022/03/15 00:25:16;;;;;;;9.63;8.23;;;8.00;99.90;;;;;;5054779;28;20511;-70
2022/03/15 00:27:46;;;;;;;9.47;8.40;;;7.90;99.90;;;;;;5054706;28;20407;-70
2022/03/15 00:30:14;;;;;;;10.20;8.13;;;7.80;99.90;;;;;;5054214;28;20447;-70
2022/03/15 00:32:39;;;;;;;14.17;8.37;;;7.70;99.90;;;;;;5054229;28;20422;-69
2022/03/15 00:35:11;;;;;;;10.00;7.73;;;7.50;99.90;;;;;;5052893;28;20417;-70
2022/03/15 00:37:37;;;;;;;9.53;8.30;;;7.40;99.90;;;;;;5054395;28;20166;-71
2022/03/15 00:40:04;;;;;;;11.87;9.00;;;7.40;99.90;;;;;;5054205;28;20444;-70
2022/03/15 00:42:30;;;;;;;11.27;8.20;;;7.30;99.90;;;;;;5053816;28;20409;-70
2022/03/15 00:44:55;;;;;;;11.07;8.83;;;7.20;99.90;;;;;;5054541;28;20784;-69
2022/03/15 00:47:21;;;;;;;13.70;9.43;;;7.10;99.90;;;;;;5054616;28;20659;-70
2022/03/15 00:49:46;;;;;;;11.60;9.10;;;7.10;99.90;;;;;;5054513;28;20532;-70
2022/03/15 00:52:12;;;;;;;9.13;8.03;;;7.10;99.90;;;;;;5053892;28;20202;-70
2022/03/15 00:54:37;;;;;;;13.00;9.87;;;7.10;99.90;;;;;;5052983;28;20227;-70
2022/03/15 00:57:03;;;;;;;11.80;9.20;;;7.00;99.90;;;;;;5054180;28;20518;-70
2022/03/15 00:59:29;;;;;;;13.80;10.17;;;7.00;99.90;;;;;;5054698;28;20179;-70
2022/03/15 01:01:56;;;;;;;11.00;9.23;;;6.90;99.90;;;;;;5053770;28;20182;-69
2022/03/15 01:04:22;;;;;;;11.50;9.03;;;6.90;99.90;;;;;;5054040;28;20230;-70
2022/03/15 01:06:47;;;;;;;10.87;9.40;;;6.90;99.90;;;;;;5053004;28;20433;-70
2022/03/15 01:09:13;;;;;;;12.10;9.13;;;6.80;99.90;;;;;;5054171;28;20178;-69
2022/03/15 01:11:38;;;;;;;13.13;9.23;;;6.90;99.90;;;;;;5053738;28;20209;-69
2022/03/15 01:14:04;;;;;;;12.60;8.10;;;6.90;99.90;;;;;;5053801;28;20222;-70
2022/03/15 01:16:30;;;;;;;11.03;8.90;;;7.00;99.90;;;;;;5054064;28;20171;-71
2022/03/15 01:18:55;;;;;;;11.07;8.70;;;7.00;99.90;;;;;;5052994;28;20417;-70
2022/03/15 01:21:21;;;;;;;10.17;8.43;;;7.10;99.90;;;;;;5053487;28;20186;-70
2022/03/15 01:23:47;;;;;;;12.00;8.40;;;7.10;99.90;;;;;;5053494;28;20175;-70
2022/03/15 01:26:13;;;;;;;13.03;8.80;;;7.10;99.90;;;;;;5053775;28;20276;-70
2022/03/15 01:28:39;;;;;;;15.70;9.20;;;7.00;99.90;;;;;;5052155;28;20187;-69
2022/03/15 01:31:05;;;;;;;14.27;9.80;;;7.00;99.90;;;;;;5053451;28;20453;-70
2022/03/15 01:33:30;;;;;;;15.40;9.90;;;6.90;99.90;;;;;;5053532;28;20205;-70
2022/03/15 01:35:56;;;;;;;12.73;8.47;;;7.00;99.90;;;;;;5053568;28;20606;-70
2022/03/15 01:38:21;;;;;;;11.23;9.17;;;7.10;99.90;;;;;;5053315;28;20168;-70
2022/03/15 01:40:47;;;;;;;10.00;8.60;;;7.20;99.90;;;;;;5053513;28;20245;-70
2022/03/15 01:43:12;;;;;;;13.13;8.70;;;7.30;99.90;;;;;;5052851;28;20176;-70
2022/03/15 01:45:39;;;;;;;11.37;9.10;;;7.30;99.90;;;;;;5052278;28;20210;-70
2022/03/15 01:48:07;;;;;;;9.80;8.57;;;7.30;99.90;;;;;;5052885;28;20170;-70
2022/03/15 01:50:33;;;;;;;12.40;8.50;;;7.40;99.90;;;;;;5051754;28;20454;-70
2022/03/15 01:52:58;;;;;;;13.57;8.97;;;7.40;99.90;;;;;;5052734;28;20503;-70
2022/03/15 01:55:24;;;;;;;11.80;9.70;;;7.30;99.90;;;;;;5052898;28;20468;-69
2022/03/15 01:57:50;;;;;;;11.70;8.90;;;7.30;99.90;;;;;;5053030;28;20179;-70
2022/03/15 02:00:17;;;;;;;11.23;9.37;;;7.20;99.90;;;;;;5052756;28;20202;-70
2022/03/15 02:02:43;;;;;;;10.40;8.40;;;7.10;99.90;;;;;;5052471;28;20174;-70
2022/03/15 02:05:10;;;;;;;15.43;9.17;;;7.20;99.90;;;;;;5052572;28;20456;-70
2022/03/15 02:07:36;;;;;;;11.13;9.40;;;7.10;99.90;;;;;;5052775;28;20837;-70
2022/03/15 02:10:03;;;;;;;12.50;8.80;;;7.10;99.90;;;;;;5052665;28;20440;-70
2022/03/15 02:12:29;;;;;;;10.63;8.17;;;7.20;99.90;;;;;;5052466;28;20168;-70
2022/03/15 02:14:57;;;;;;;14.50;9.07;;;7.20;99.90;;;;;;5051313;28;20436;-70
2022/03/15 02:17:22;;;;;;;11.50;9.37;;;7.30;99.90;;;;;;5052786;28;20779;-70
2022/03/15 02:19:48;;;;;;;10.77;8.80;;;7.30;99.90;;;;;;5052740;28;20415;-70
2022/03/15 02:22:14;;;;;;;13.70;9.50;;;7.30;99.90;;;;;;5052244;28;20251;-70
2022/03/15 02:24:40;;;;;;;12.37;8.60;;;7.40;99.90;;;;;;5052713;28;20454;-69
2022/03/15 02:27:05;;;;;;;10.87;7.90;;;7.40;99.90;;;;;;5052826;28;20190;-69
2022/03/15 02:29:33;;;;;;;11.40;8.90;;;7.30;99.90;;;;;;5051703;28;20416;-69
2022/03/15 02:31:59;;;;;;;9.93;8.47;;;7.20;99.90;;;;;;5052827;28;20233;-70
2022/03/15 02:34:25;;;;;;;13.40;8.50;;;7.10;99.90;;;;;;5054389;28;20471;-69
2022/03/15 02:36:51;;;;;;;11.00;8.93;;;7.10;99.90;;;;;;5052958;28;20187;-70
2022/03/15 02:39:16;;;;;;;12.37;8.53;;;7.10;99.90;;;;;;5056230;28;21088;-71
2022/03/15 02:41:42;;;;;;;9.93;8.10;;;7.10;99.90;;;;;;5064214;28;20679;-68
2022/03/15 02:44:09;;;;;;;11.03;9.80;;;7.10;99.90;;;;;;5073988;28;20201;-70
2022/03/15 02:46:36;;;;;;;11.10;8.70;;;7.10;99.90;;;;;;5072614;28;20171;-70
2022/03/15 02:49:02;;;;;;;10.20;7.93;;;7.20;99.90;;;;;;5075437;28;20418;-69
2022/03/15 02:51:27;;;;;;;11.93;8.77;;;7.30;99.90;;;;;;5072287;28;20462;-70
2022/03/15 02:53:53;;;;;;;14.00;9.90;;;7.30;99.90;;;;;;5055183;28;20193;-72
2022/03/15 02:56:19;;;;;;;10.43;8.53;;;7.20;99.90;;;;;;5053331;28;20219;-71
2022/03/15 02:58:45;;;;;;;10.40;8.50;;;7.10;99.90;;;;;;5052989;28;20408;-71
2022/03/15 03:01:11;;;;;;;12.07;8.43;;;7.20;99.90;;;;;;5052956;28;20409;-71
2022/03/15 03:03:37;;;;;;;13.20;8.63;;;7.30;99.90;;;;;;5052237;28;20544;-70
2022/03/15 03:06:03;;;;;;;11.57;8.47;;;7.30;99.90;;;;;;5052793;28;20261;-71
2022/03/15 03:08:30;;;;;;;11.60;8.60;;;7.30;99.90;;;;;;5052698;28;20428;-69
2022/03/15 03:10:57;;;;;;;12.20;8.93;;;7.30;99.90;;;;;;5052227;28;20454;-71
2022/03/15 03:13:26;;;;;;;11.83;9.07;;;7.20;99.90;;;;;;5051860;28;20501;-70
2022/03/15 03:15:59;;;;;;;11.33;9.03;;;7.20;99.90;;;;;;5052321;28;20440;-71
2022/03/15 03:18:29;;;;;;;10.07;8.57;;;7.20;99.90;;;;;;5052188;28;20480;-72
2022/03/15 03:20:55;;;;;;;10.47;8.60;;;7.30;99.90;;;;;;5052106;28;20417;-69
2022/03/15 03:23:21;;;;;;;9.33;7.70;;;7.30;99.90;;;;;;5051802;28;20411;-70
2022/03/15 03:25:47;;;;;;;10.17;9.00;;;7.40;99.90;;;;;;5051928;28;20273;-71
2022/03/15 03:28:14;;;;;;;9.60;8.60;;;7.40;99.90;;;;;;5050659;28;20507;-70
2022/03/15 03:30:47;;;;;;;11.70;8.83;;;7.50;99.90;;;;;;5052161;28;20206;-70
2022/03/15 03:33:19;;;;;;;14.60;8.70;;;7.50;99.90;;;;;;5050578;28;20517;-71
2022/03/15 03:35:45;;;;;;;10.73;8.53;;;7.40;99.90;;;;;;5052103;28;20963;-71
2022/03/15 03:38:11;;;;;;;12.13;8.60;;;7.40;99.90;;;;;;5052004;28;20404;-70
2022/03/15 03:40:37;;;;;;;11.70;8.13;;;7.40;99.90;;;;;;5052456;28;20934;-71
2022/03/15 03:43:04;;;;;;;9.93;8.33;;;7.30;99.90;;;;;;5052135;28;20421;-70
2022/03/15 03:45:29;;;;;;;10.40;9.10;;;7.30;99.90;;;;;;5052588;28;20203;-71
2022/03/15 03:47:55;;;;;;;12.60;9.23;;;7.40;99.90;;;;;;5052313;28;20779;-71
2022/03/15 03:50:20;;;;;;;10.87;7.93;;;7.40;99.90;;;;;;5063436;28;20212;-69
2022/03/15 03:52:46;;;;;;;12.77;9.77;;;7.40;99.90;;;;;;5076784;28;20175;-68
2022/03/15 03:55:11;;;;;;;10.20;8.43;;;7.50;99.90;;;;;;5077012;28;20198;-69
2022/03/15 03:57:38;;;;;;;10.00;8.60;;;7.50;99.90;;;;;;5076807;28;20174;-68
2022/03/15 04:00:06;;;;;;;10.43;8.73;;;7.60;99.90;;;;;;5066987;28;20220;-70
2022/03/15 04:02:31;;;;;;;10.00;8.37;;;7.60;99.90;;;;;;5052682;28;20417;-70
2022/03/15 04:04:57;;;;;;;12.27;8.63;;;7.60;99.90;;;;;;5051727;28;20898;-70
2022/03/15 04:07:22;;;;;;;12.70;9.40;;;7.70;99.90;;;;;;5051995;28;20183;-70
2022/03/15 04:09:48;;;;;;;15.63;12.67;;;7.70;99.90;;;;;;5054460;28;20234;-70
2022/03/15 04:12:14;;;;;;;16.23;10.33;;;7.70;99.90;;;;;;5055226;28;20216;-70
2022/03/15 04:14:40;;;;;;;12.40;8.90;;;7.70;99.90;;;;;;5055083;28;20194;-71
2022/03/15 04:17:07;;;;;;;9.97;8.60;;;7.70;99.90;;;;;;5055122;28;20898;-70
2022/03/15 04:19:33;;;;;;;17.27;8.50;;;7.70;99.90;;;;;;5054221;28;20171;-71
2022/03/15 04:21:59;;;;;;;10.87;9.10;;;7.60;99.90;;;;;;5054674;28;20441;-70
2022/03/15 04:24:25;;;;;;;10.60;8.23;;;7.60;99.90;;;;;;5054782;28;20518;-70
2022/03/15 04:26:51;;;;;;;12.30;8.63;;;7.60;99.90;;;;;;5054903;28;20189;-70
2022/03/15 04:29:16;;;;;;;9.40;8.40;;;7.50;99.90;;;;;;5053694;28;20427;-70
2022/03/15 04:31:42;;;;;;;12.40;8.60;;;7.60;99.90;;;;;;5054506;28;20453;-70
2022/03/15 04:34:07;;;;;;;15.70;9.83;;;7.60;99.90;;;;;;5054935;28;20200;-69
2022/03/15 04:36:35;;;;;;;10.70;8.13;;;7.60;99.90;;;;;;5055234;28;20630;-70
2022/03/15 04:39:01;;;;;;;10.57;8.87;;;7.70;99.90;;;;;;5055055;28;20222;-70
2022/03/15 04:41:26;;;;;;;9.87;8.73;;;7.70;99.90;;;;;;5054141;28;20948;-70
2022/03/15 04:43:52;;;;;;;10.87;9.10;;;7.70;99.90;;;;;;5074954;28;20417;-69
2022/03/15 04:46:17;;;;;;;10.87;8.53;;;7.70;99.90;;;;;;5060630;28;20174;-70
2022/03/15 04:48:43;;;;;;;12.37;8.40;;;7.70;99.90;;;;;;5057648;28;20185;-71
2022/03/15 04:51:09;;;;;;;10.40;8.17;;;7.70;99.90;;;;;;5070591;28;20194;-71
2022/03/15 04:53:35;;;;;;;11.43;8.70;;;7.60;99.90;;;;;;5070852;28;20176;-70
2022/03/15 04:56:01;;;;;;;16.87;9.00;;;7.60;99.90;;;;;;5070580;28;20184;-70
2022/03/15 04:58:27;;;;;;;10.47;7.83;;;7.60;99.90;;;;;;5062484;28;20424;-70
2022/03/15 05:00:52;;;;;;;9.83;8.30;;;7.60;99.90;;;;;;5053085;28;20181;-70
2022/03/15 05:03:18;;;;;;;11.00;9.07;;;7.70;99.90;;;;;;5054643;28;20273;-71
2022/03/15 05:05:44;;;;;;;11.53;9.00;;;7.70;99.90;;;;;;5054055;28;20295;-70
2022/03/15 05:08:10;;;;;;;10.47;8.70;;;7.70;99.90;;;;;;5054388;28;20175;-70
2022/03/15 05:13:20;;;;;;;15.27;9.03;;;7.70;99.90;;;;;;5053664;28;20909;-72
2022/03/15 05:15:46;;;;;;;14.67;7.93;;;7.80;99.90;;;;;;5053804;28;20431;-71
2022/03/15 05:18:12;;;;;;;10.87;7.70;;;7.80;99.90;;;;;;5053820;28;20404;-70
2022/03/15 05:20:37;;;;;;;10.27;7.30;;;7.80;99.90;;;;;;5052936;28;20897;-70
2022/03/15 05:23:03;;;;;;;10.73;7.77;;;7.80;99.90;;;;;;5053413;28;20181;-69
2022/03/15 05:25:29;;;;;;;13.53;8.53;;;7.80;99.90;;;;;;5053497;28;20206;-70
2022/03/15 05:27:54;;;;;;;10.50;8.23;;;7.80;99.90;;;;;;5053915;28;20595;-70
2022/03/15 05:30:20;;;;;;;10.60;7.60;;;7.80;99.90;;;;;;5053360;28;20669;-69
2022/03/15 05:32:45;;;;;;;10.87;8.10;;;7.70;99.90;;;;;;5051822;28;20167;-69
2022/03/15 05:35:11;;;;;;;10.87;7.53;;;7.80;99.90;;;;;;5053029;28;20240;-69
2022/03/15 05:37:37;;;;;;;12.87;8.07;;;7.80;99.90;;;;;;5053408;28;20170;-70
2022/03/15 05:40:04;;;;;;;10.50;8.50;;;7.80;99.90;;;;;;5052950;28;20208;-70
2022/03/15 05:42:29;;;;;;;9.93;7.50;;;7.80;99.90;;;;;;5053009;28;20210;-71
2022/03/15 05:44:55;;;;;;;9.70;7.30;;;7.90;99.90;;;;;;5053145;28;20453;-70
2022/03/15 05:47:21;;;;;;;11.40;7.43;;;7.90;99.90;;;;;;5053628;28;20433;-71
2022/03/15 05:49:46;;;;;;;10.13;7.90;;;7.80;99.90;;;;;;5053268;28;20685;-70
2022/03/15 05:52:12;;;;;;;10.37;7.90;;;7.80;99.90;;;;;;5053315;28;20204;-70
2022/03/15 05:54:38;;;;;;;10.20;7.47;;;7.80;99.90;;;;;;5053530;28;20636;-70
2022/03/15 05:57:04;;;;;;;9.83;7.60;;;7.90;99.90;;;;;;5053323;28;20233;-71
2022/03/15 05:59:29;;;;;;;9.93;8.43;;;7.90;99.90;;;;;;5053785;28;20173;-70
2022/03/15 06:01:55;;;;;;;15.10;8.53;;;7.90;99.90;;;;;;5053489;28;20413;-70
2022/03/15 06:04:24;;;;;;;11.87;8.10;;;7.90;99.90;;;;;;5054146;28;20280;-69
2022/03/15 06:06:49;;;;;;;9.90;7.80;;;7.90;99.90;;;;;;5076534;28;20247;-70
2022/03/15 06:09:15;;;;;;;9.13;7.63;;;7.90;99.90;;;;;;5075633;28;20421;-69
2022/03/15 06:11:40;;;;;;;9.50;7.10;;;7.90;99.90;;;;;;5076103;28;20199;-69
2022/03/15 06:14:06;;;;;;;9.33;7.07;;;7.90;99.90;;;;;;5077509;28;20285;-68
2022/03/15 06:16:32;;;;;;;11.03;7.70;;;7.90;99.90;;;;;;5069934;28;20656;-70
2022/03/15 06:18:57;;;;;;;12.43;7.63;;;8.00;99.90;;;;;;5053066;28;20408;-70
2022/03/15 06:21:23;;;;;;;12.37;7.43;;;8.00;99.90;;;;;;5053213;28;20215;-71
2022/03/15 06:23:49;;;;;;;10.63;7.90;;;8.00;99.90;;;;;;5052494;28;20175;-69
2022/03/15 06:26:18;;;;;;;13.90;7.70;;;8.00;99.90;;;;;;5052326;28;20176;-71
2022/03/15 06:28:43;;;;;;;8.67;7.40;;;8.10;99.90;;;;;;5052336;28;20502;-69
2022/03/15 06:31:09;;;;;;;9.40;8.10;;;8.10;99.90;;;;;;5052230;28;20866;-69
2022/03/15 06:33:35;;;;;;;11.77;7.23;;;8.10;99.90;;;;;;5051916;28;20174;-70
2022/03/15 06:36:02;;;;;;;11.97;7.90;;;8.20;99.90;;;;;;5048889;28;20514;-69
2022/03/15 06:38:28;;;;;;;11.47;7.90;;;8.20;99.90;;;;;;5057026;28;20889;-66
2022/03/15 06:40:54;;;;;;;8.10;7.30;;;8.20;99.90;;;;;;5056182;28;20585;-70
2022/03/15 06:43:20;;;;;;;8.73;7.60;;;8.20;99.90;;;;;;5062390;28;20509;-70
2022/03/15 06:45:47;;;;;;;9.80;7.20;;;8.30;99.90;;;;;;5057888;28;20226;-71
2022/03/15 06:48:13;;;;;;;12.23;8.00;;;8.30;99.90;;;;;;5058553;28;20307;-70
2022/03/15 06:50:40;;;;;;;15.80;8.40;;;8.30;99.90;;;;;;5057691;28;20492;-70
2022/03/15 06:53:05;;;;;;;14.83;8.10;;;8.30;99.90;;;;;;5063754;28;20428;-70
2022/03/15 06:55:32;;;;;;;8.63;7.73;;;8.30;99.90;;;;;;5070714;28;20814;-70
2022/03/15 06:57:59;;;;;;;10.03;7.43;;;8.40;99.90;;;;;;5069606;28;20207;-69
2022/03/15 07:00:24;;;;;;;9.83;7.37;;;8.50;99.90;;;;;;5070899;28;20519;-68
2022/03/15 07:02:50;;;;;;;8.77;7.30;;;8.50;99.90;;;;;;5071205;28;20604;-70
2022/03/15 07:05:15;;;;;;;8.90;7.10;;;8.50;99.90;;;;;;5070374;28;20585;-71
2022/03/15 07:07:41;;;;;;;9.60;8.00;;;8.60;99.90;;;;;;5071302;28;20212;-73
2022/03/15 07:10:09;;;;;;;14.47;8.10;;;8.60;99.90;;;;;;5073008;28;20189;-71
2022/03/15 07:12:35;;;;;;;9.80;7.90;;;8.60;99.90;;;;;;5072291;28;20202;-72
2022/03/15 07:15:03;;;;;;;10.43;8.70;;;8.70;99.90;;;;;;5074705;28;20424;-70
2022/03/15 07:17:30;;;;;;;11.53;8.40;;;8.70;99.90;;;;;;5074289;28;20425;-67
2022/03/15 07:19:57;;;;;;;12.10;8.83;;;8.70;99.90;;;;;;5078256;28;20457;-71
2022/03/15 07:22:23;;;;;;;12.73;8.93;;;8.80;99.90;;;;;;5074375;28;20469;-69
2022/03/15 07:24:50;;;;;;;11.10;7.83;;;8.80;99.90;;;;;;5074065;28;20431;-70
2022/03/15 07:27:15;;;;;;;9.10;7.70;;;8.90;99.90;;;;;;5073388;28;20450;-70
2022/03/15 07:29:41;;;;;;;13.60;8.20;;;8.90;99.90;;;;;;5072656;28;21019;-71
2022/03/15 07:32:07;;;;;;;16.57;9.50;;;8.90;99.90;;;;;;5071600;28;20489;-70
2022/03/15 07:34:32;;;;;;;9.50;7.93;;;9.00;99.90;;;;;;5070284;28;20229;-70
2022/03/15 07:36:58;;;;;;;13.40;9.20;;;9.00;99.90;;;;;;5071233;28;20528;-71
2022/03/15 07:39:23;;;;;;;11.40;7.43;;;9.10;99.90;;;;;;5072871;28;20197;-70
2022/03/15 07:41:50;;;;;;;9.03;7.80;;;9.20;99.90;;;;;;5072481;28;20204;-70
2022/03/15 07:44:15;;;;;;;9.87;7.40;;;9.20;99.90;;;;;;5062027;28;20213;-69
2022/03/15 07:46:48;;;;;;;11.37;7.70;;;9.30;99.90;;;;;;5056009;28;20444;-70
2022/03/15 07:49:22;;;;;;;10.63;8.10;;;9.30;99.90;;;;;;5056306;28;20197;-71
2022/03/15 07:51:49;;;;;;;9.20;7.23;;;9.40;99.90;;;;;;5035372;28;20479;-70
2022/03/15 07:54:15;;;;;;;9.57;7.30;;;9.40;99.90;;;;;;5034884;28;20449;-71
2022/03/15 07:56:41;;;;;;;14.70;8.20;;;9.50;99.90;;;;;;5035956;28;20437;-71
2022/03/15 07:59:07;;;;;;;9.97;7.17;;;9.50;99.90;;;;;;5033770;28;20540;-70
2022/03/15 08:01:34;;;;;;;16.57;8.80;;;9.60;99.90;;;;;;5034209;28;20227;-71
2022/03/15 08:04:00;;;;;;;10.60;8.43;;;9.60;99.90;;;;;;5034411;28;20864;-69
2022/03/15 08:06:25;;;;;;;15.03;7.73;;;9.70;99.90;;;;;;5034043;28;20437;-69
2022/03/15 08:08:56;;;;;;;11.10;7.47;;;9.70;99.90;;;;;;5033452;28;20210;-71
2022/03/15 08:11:23;;;;;;;11.87;7.00;;;9.80;99.90;;;;;;5035185;28;20218;-70
2022/03/15 08:13:51;;;;;;;8.53;6.97;;;9.80;99.90;;;;;;5034950;28;20957;-69
2022/03/15 08:16:17;;;;;;;7.20;6.33;;;9.80;99.90;;;;;;5034955;28;20884;-70
2022/03/15 08:18:42;;;;;;;8.70;6.13;;;9.80;99.90;;;;;;5034303;28;20449;-70
2022/03/15 08:21:10;;;;;;;6.50;5.30;;;9.80;99.90;;;;;;5063802;28;20216;-70
2022/03/15 08:23:36;;;;;;;7.17;5.20;;;9.90;99.90;;;;;;5074503;28;20677;-70
2022/03/15 08:26:01;;;;;;;8.67;4.90;;;9.90;99.90;;;;;;5078183;28;20533;-71
2022/03/15 08:28:27;;;;;;;6.90;5.20;;;9.90;99.90;;;;;;5073962;28;20213;-70
2022/03/15 08:30:54;;;;;;;7.80;4.83;;;10.00;99.90;;;;;;5075713;28;20363;-72
2022/03/15 08:33:20;;;;;;;6.30;4.97;;;10.00;99.90;;;;;;5074543;28;20246;-70
2022/03/15 08:35:47;;;;;;;9.93;6.13;;;10.10;99.90;;;;;;5074420;28;20764;-70
2022/03/15 08:38:12;;;;;;;8.00;5.87;;;10.10;99.90;;;;;;5074804;28;20431;-71
2022/03/15 08:40:38;;;;;;;9.13;5.27;;;10.20;99.90;;;;;;5074951;28;20458;-71
2022/03/15 08:43:04;;;;;;;8.20;5.30;;;10.20;99.90;;;;;;5072601;28;20232;-70
2022/03/15 08:45:30;;;;;;;7.70;5.70;;;10.20;99.90;;;;;;5054889;28;20202;-69
2022/03/15 08:47:56;;;;;;;8.93;5.80;;;10.30;99.90;;;;;;5055779;28;20436;-69
2022/03/15 08:50:22;;;;;;;7.63;5.23;;;10.30;99.90;;;;;;5062826;28;20797;-70
2022/03/15 08:52:48;;;;;;;6.17;5.30;;;10.30;99.90;;;;;;5075198;28;20436;-71
2022/03/15 08:55:14;;;;;;;7.20;4.67;;;10.30;99.90;;;;;;5074104;28;20455;-70
2022/03/15 08:57:40;;;;;;;8.60;5.47;;;10.30;99.90;;;;;;5074928;28;20189;-70
2022/03/15 09:00:08;;;;;;;7.43;5.23;;;10.30;99.90;;;;;;5075551;28;20811;-72
2022/03/15 09:02:34;;;;;;;7.60;4.40;;;10.30;99.90;;;;;;5075853;28;20205;-71
2022/03/15 09:04:59;;;;;;;8.10;4.60;;;10.40;99.90;;;;;;5076404;28;20986;-71
2022/03/15 09:07:27;;;;;;;7.40;4.43;;;10.50;99.90;;;;;;5063952;28;20245;-72
2022/03/15 09:09:53;;;;;;;5.13;4.20;;;10.40;99.90;;;;;;5054462;28;20701;-72
2022/03/15 09:12:18;;;;;;;9.90;3.80;;;10.30;99.90;;;;;;5054702;28;20464;-70
2022/03/15 09:14:44;;;;;;;7.07;3.90;;;10.30;99.90;;;;;;5054355;28;20493;-71
2022/03/15 09:17:10;;;;;;;5.40;4.30;;;10.30;99.90;;;;;;5054859;28;20749;-71
2022/03/15 09:19:36;;;;;;;6.80;3.73;;;10.40;99.90;;;;;;5053207;28;20228;-69
2022/03/15 09:22:03;;;;;;;10.27;4.97;;;10.40;99.90;;;;;;5053349;28;20174;-70
2022/03/15 09:24:32;;;;;;;4.43;4.03;;;10.50;99.90;;;;;;5052974;28;20501;-70
2022/03/15 09:26:58;;;;;;;5.60;4.30;;;10.60;99.90;;;;;;5054428;28;20420;-70
2022/03/15 09:29:24;;;;;;;8.70;4.07;;;10.40;99.90;;;;;;5054558;28;20413;-69
2022/03/15 09:31:49;;;;;;;6.10;4.70;;;10.50;99.90;;;;;;5054420;28;20190;-70
2022/03/15 09:34:18;;;;;;;7.60;4.33;;;10.50;99.90;;;;;;5057554;28;20478;-70
2022/03/15 09:36:44;;;;;;;6.37;4.73;;;10.50;99.90;;;;;;5054179;28;20170;-70
2022/03/15 09:39:10;;;;;;;7.00;4.80;;;10.50;99.90;;;;;;5053950;28;21015;-70
2022/03/15 09:41:39;;;;;;;9.20;3.73;;;10.50;99.90;;;;;;5053740;28;20436;-69
2022/03/15 09:44:09;;;;;;;4.30;3.10;;;10.60;99.90;;;;;;5064599;28;20185;-70
2022/03/15 09:46:42;;;;;;;4.70;3.97;;;10.60;99.90;;;;;;5073822;28;20404;-70
2022/03/15 09:49:09;;;;;;;5.97;3.70;;;10.70;99.90;;;;;;5074515;28;20443;-69
2022/03/15 09:51:36;;;;;;;4.53;3.67;;;10.70;99.90;;;;;;5075429;28;20455;-73
2022/03/15 09:54:04;;;;;;;5.87;3.50;;;10.80;99.90;;;;;;5074166;28;20440;-70
2022/03/15 09:56:30;;;;;;;4.93;3.53;;;10.90;99.90;;;;;;5073627;28;20483;-70
2022/03/15 09:58:56;;;;;;;4.47;3.40;;;11.10;99.90;;;;;;5073049;28;20826;-72
2022/03/15 10:01:21;;;;;;;6.77;3.90;;;11.10;99.90;;;;;;5078467;28;20177;-68
2022/03/15 10:03:47;;;;;;;4.67;4.17;;;11.20;99.90;;;;;;5076014;28;20185;-71
2022/03/15 10:06:15;;;;;;;7.40;4.03;;;11.30;99.90;;;;;;5073968;28;20192;-69
2022/03/15 10:08:41;;;;;;;4.57;3.67;;;11.40;99.90;;;;;;5075933;28;20191;-70
2022/03/15 10:11:07;;;;;;;6.73;5.20;;;11.50;99.90;;;;;;5074835;28;20451;-71
2022/03/15 10:13:33;;;;;;;4.63;4.03;;;11.50;99.90;;;;;;5073907;28;20416;-70
2022/03/15 10:16:00;;;;;;;6.60;4.20;;;11.50;99.90;;;;;;5074215;28;20185;-71
2022/03/15 10:18:27;;;;;;;8.53;5.30;;;11.60;99.90;;;;;;5074499;28;20407;-71
2022/03/15 10:20:54;;;;;;;4.87;3.67;;;11.60;99.90;;;;;;5072739;28;20455;-71
2022/03/15 10:23:29;;;;;;;5.80;3.90;;;11.70;99.90;;;;;;5073823;28;20416;-70
2022/03/15 10:25:55;;;;;;;5.63;4.10;;;11.80;99.90;;;;;;5074051;28;20467;-69
2022/03/15 10:28:22;;;;;;;4.93;3.77;;;11.90;99.90;;;;;;5073894;28;20422;-69
2022/03/15 10:30:48;;;;;;;7.13;4.73;;;11.90;99.90;;;;;;5072777;28;20459;-69
2022/03/15 10:33:17;;;;;;;6.73;4.30;;;11.90;99.90;;;;;;5072907;28;20420;-70
2022/03/15 10:35:49;;;;;;;8.67;4.73;;;11.90;99.90;;;;;;5074188;28;20807;-69
2022/03/15 10:38:15;;;;;;;5.87;3.80;;;11.80;99.90;;;;;;5072493;28;20407;-71
2022/03/15 10:40:44;;;;;;;6.03;3.70;;;11.80;99.90;;;;;;5071651;28;20412;-70
2022/03/15 10:43:13;;;;;;;10.00;4.10;;;11.90;99.90;;;;;;5068714;28;20762;-70
2022/03/15 10:45:47;;;;;;;4.70;4.20;;;11.90;99.80;;;;;;5052754;28;20558;-70
2022/03/15 10:48:30;;;;;;;4.20;3.57;;;11.90;99.90;;;;;;5053299;28;20418;-71
2022/03/15 10:51:00;;;;;;;5.43;3.30;;;12.00;99.90;;;;;;5052868;28;20903;-70
2022/03/15 10:53:34;;;;;;;11.27;4.27;;;12.00;99.70;;;;;;5054109;28;20424;-71
2022/03/15 10:56:19;;;;;;;8.13;3.70;;;12.00;99.80;;;;;;5053295;28;20428;-69
2022/03/15 10:58:52;;;;;;;3.53;3.20;;;12.10;99.90;;;;;;5052654;28;20998;-70
2022/03/15 11:01:23;;;;;;;6.37;3.60;;;12.00;99.60;;;;;;5053089;28;20444;-69
2022/03/15 11:04:09;;;;;;;7.90;3.43;;;12.00;99.70;;;;;;5050760;28;20428;-70
2022/03/15 11:06:41;;;;;;;6.13;3.60;;;12.10;99.70;;;;;;5052667;28;20466;-71
2022/03/15 11:09:27;;;;;;;4.80;3.50;;;12.20;99.70;;;;;;5056043;28;20409;-70
2022/03/15 11:11:59;;;;;;;3.27;2.97;;;12.30;99.60;;;;;;5052636;28;20490;-71
2022/03/15 11:14:48;;;;;;;5.13;3.10;;;12.30;99.20;;;;;;5052543;28;20433;-71
2022/03/15 11:17:22;;;;;;;4.10;2.97;;;12.40;99.10;;;;;;5053280;28;20405;-71
2022/03/15 11:19:55;;;;;;;4.00;2.60;;;12.40;98.40;;;;;;5055911;28;20919;-71
2022/03/15 11:22:27;;;;;;;5.20;3.00;;;12.50;98.20;;;;;;5056989;28;20784;-71
2022/03/15 11:25:08;;;;;;;4.40;2.77;;;12.50;98.00;;;;;;5061204;28;20436;-70
2022/03/15 11:27:42;;;;;;;3.80;3.00;;;12.50;98.00;;;;;;5061838;28;20404;-71
2022/03/15 11:30:14;;;;;;;4.33;3.13;;;12.50;98.30;;;;;;5060388;28;20499;-72
2022/03/15 11:32:40;;;;;;;3.63;3.20;;;12.50;98.60;;;;;;5061604;28;20452;-71
2022/03/15 11:35:10;;;;;;;4.37;3.10;;;12.40;98.60;;;;;;5060978;28;20429;-71
2022/03/15 11:37:38;;;;;;;3.73;3.10;;;12.50;98.50;;;;;;5060587;28;20177;-71
2022/03/15 11:40:06;;;;;;;5.70;3.03;;;12.40;98.50;;;;;;5060668;28;20413;-70
2022/03/15 11:42:34;;;;;;;5.43;3.20;;;12.30;99.20;;;;;;5059888;28;20416;-71
2022/03/15 11:45:04;;;;;;;3.93;3.63;;;12.30;99.60;;;;;;5078855;28;20465;-70
2022/03/15 11:47:40;;;;;;;3.10;2.80;;;12.30;99.90;;;;;;5091749;28;20416;-68
2022/03/15 11:50:20;;;;;;;4.63;3.17;;;12.30;99.90;;;;;;5080361;28;20460;-69
2022/03/15 11:53:12;;;;;;;4.03;3.10;;;12.30;99.90;;;;;;5059406;28;20464;-69
2022/03/15 11:55:47;;;;;;;4.80;3.20;;;12.30;99.90;;;;;;5029060;28;20457;-69
2022/03/15 11:58:27;;;;;;;6.50;3.57;;;12.30;99.90;;;;;;5054166;28;20510;-71
2022/03/15 12:00:53;;;;;;;3.37;3.07;;;12.30;99.90;;;;;;5037715;28;20480;-70
2022/03/15 12:03:21;;;;;;;3.83;3.43;;;12.30;99.90;;;;;;5057452;28;21198;-70
2022/03/15 12:05:52;;;;;;;4.67;3.20;;;12.30;99.90;;;;;;5076932;28;20972;-71
2022/03/15 12:08:19;;;;;;;3.50;3.20;;;12.30;99.90;;;;;;5077707;28;20516;-70
2022/03/15 12:11:03;;;;;;;4.20;2.87;;;12.30;99.90;;;;;;5076717;28;20939;-70
2022/03/15 12:13:43;;;;;;;3.70;3.30;;;12.30;99.90;;;;;;5076400;28;20519;-70
2022/03/15 12:16:15;;;;;;;6.93;4.07;;;12.30;99.90;;;;;;5075898;28;20439;-70
2022/03/15 12:18:42;;;;;;;4.13;3.13;;;12.30;99.90;;;;;;5073932;28;20454;-70
2022/03/15 12:21:10;;;;;;;6.63;4.10;;;12.30;99.90;;;;;;5070073;28;20463;-70
2022/03/15 12:23:50;;;;;;;7.17;3.90;;;12.30;99.90;;;;;;5074977;28;20889;-70
2022/03/15 12:26:22;;;;;;;3.57;3.30;;;12.40;99.90;;;;;;5075533;28;20420;-70
2022/03/15 12:29:00;;;;;;;3.77;3.40;;;12.40;99.90;;;;;;5075791;28;20562;-70
2022/03/15 12:31:39;;;;;;;5.13;3.70;;;12.40;99.90;;;;;;5076089;28;20558;-70
2022/03/15 12:34:19;;;;;;;5.00;4.40;;;12.40;99.90;;;;;;5076206;28;20573;-70
2022/03/15 12:36:49;;;;;;;5.43;3.77;;;12.50;99.90;;;;;;5076120;28;20400;-70
2022/03/15 12:39:17;;;;;;;5.23;4.37;;;12.50;99.90;;;;;;5076387;28;20461;-70
2022/03/15 12:41:44;;;;;;;4.37;4.07;;;12.60;99.90;;;;;;5076314;28;20461;-70
2022/03/15 12:44:10;;;;;;;5.50;3.93;;;12.60;99.90;;;;;;5064690;28;20440;-70
2022/03/15 12:46:40;;;;;;;4.63;4.20;;;12.60;99.90;;;;;;5056552;28;20408;-69
2022/03/15 12:49:08;;;;;;;5.27;4.20;;;12.70;99.90;;;;;;5056763;28;20174;-71
2022/03/15 12:51:42;;;;;;;7.00;5.53;;;12.70;99.90;;;;;;5056104;28;20467;-69